Time;durP1;ratioP1;P1;durP2;ratioP2;P2;SDS_P1;SDS_P2;PMS_P1;PMS_P2;Temp;Humidity;BMP_temperature;BMP_pressure;BME280_temperature;BME280_humidity;BME280_pressure;Samples;Min_cycle;Max_cycle;Signal;HPM_P1;HPM_P2
2022/07/13 00:01:07;;;;;;;2.55;1.60;;;;;;;20.70;53.52;96374.75;5074030;28;20232;-85
2022/07/13 00:03:34;;;;;;;2.35;1.73;;;;;;;20.65;54.10;96387.69;5074095;28;20254;-83
2022/07/13 00:06:01;;;;;;;2.10;1.77;;;;;;;20.56;54.49;96379.34;5074861;28;20204;-83
2022/07/13 00:08:29;;;;;;;3.65;1.42;;;;;;;20.48;55.15;96382.25;5075421;28;20204;-85
2022/07/13 00:10:58;;;;;;;2.08;1.60;;;;;;;20.48;55.56;96376.22;5074458;28;20216;-84
2022/07/13 00:13:24;;;;;;;2.55;1.55;;;;;;;20.47;55.16;96375.41;5073814;28;20786;-85
2022/07/13 00:15:53;;;;;;;3.72;1.70;;;;;;;20.44;55.59;96377.66;5074397;28;20201;-84
2022/07/13 00:18:20;;;;;;;2.00;1.60;;;;;;;20.47;55.10;96367.56;5074806;28;20767;-84
2022/07/13 00:20:47;;;;;;;1.50;1.40;;;;;;;20.49;54.99;96370.75;5073576;28;20213;-82
2022/07/13 00:23:13;;;;;;;2.08;1.70;;;;;;;20.49;55.43;96364.72;5074449;28;20228;-85
2022/07/13 00:25:41;;;;;;;2.65;1.60;;;;;;;20.41;55.56;96359.78;5073780;28;20246;-85
2022/07/13 00:28:07;;;;;;;1.65;1.52;;;;;;;20.24;57.03;96368.19;5074399;28;20196;-84
2022/07/13 00:30:34;;;;;;;1.95;1.60;;;;;;;20.27;56.42;96362.53;5073251;28;20216;-83
2022/07/13 00:33:00;;;;;;;3.10;1.60;;;;;;;20.26;56.92;96355.69;5073469;28;20236;-84
2022/07/13 00:35:27;;;;;;;1.85;1.73;;;;;;;20.25;56.96;96353.28;5073712;28;20212;-83
2022/07/13 00:37:53;;;;;;;2.53;1.48;;;;;;;20.28;56.78;96353.66;5073805;28;20201;-83
2022/07/13 00:40:20;;;;;;;3.33;1.65;;;;;;;20.34;56.35;96362.47;5073036;28;20230;-83
2022/07/13 00:42:48;;;;;;;1.95;1.50;;;;;;;20.41;56.10;96363.19;5073588;28;20224;-83
2022/07/13 00:45:14;;;;;;;1.70;1.60;;;;;;;20.40;56.50;96358.97;5072390;28;20193;-84
2022/07/13 00:47:41;;;;;;;2.92;1.55;;;;;;;20.39;55.91;96360.03;5073535;28;20204;-83
2022/07/13 00:50:09;;;;;;;1.75;1.55;;;;;;;20.41;56.03;96354.53;5073019;28;20200;-84
2022/07/13 00:52:36;;;;;;;1.92;1.58;;;;;;;20.42;55.53;96354.34;5073059;28;20235;-84
2022/07/13 00:55:05;;;;;;;2.90;1.60;;;;;;;20.42;55.30;96354.34;5073020;28;20197;-83
2022/07/13 00:57:34;;;;;;;1.92;1.50;;;;;;;20.40;55.46;96350.34;5073171;28;20246;-83
2022/07/13 01:00:05;;;;;;;1.77;1.45;;;;;;;20.31;56.08;96348.00;5072870;28;20228;-84
2022/07/13 01:02:31;;;;;;;3.10;1.30;;;;;;;20.31;56.42;96347.19;5073034;28;20274;-83
2022/07/13 01:04:59;;;;;;;1.48;1.38;;;;;;;20.15;57.17;96350.41;5073870;28;20201;-82
2022/07/13 01:07:26;;;;;;;2.38;1.35;;;;;;;20.14;56.60;96352.22;5073028;28;20213;-83
2022/07/13 01:09:53;;;;;;;1.67;1.58;;;;;;;20.13;56.95;96353.22;5073352;28;20201;-83
2022/07/13 01:12:19;;;;;;;2.33;1.40;;;;;;;20.17;56.81;96357.00;5071908;28;20227;-84
2022/07/13 01:14:46;;;;;;;1.52;1.42;;;;;;;20.22;56.40;96351.09;5073193;28;20197;-83
2022/07/13 01:17:14;;;;;;;1.23;1.13;;;;;;;20.26;56.68;96354.88;5073244;28;20208;-85
2022/07/13 01:19:41;;;;;;;1.42;1.30;;;;;;;20.30;56.44;96356.84;5073302;28;20251;-83
2022/07/13 01:22:11;;;;;;;1.38;1.27;;;;;;;20.26;56.10;96355.69;5071941;28;20221;-85
2022/07/13 01:24:39;;;;;;;1.48;1.38;;;;;;;20.25;55.82;96354.09;5072659;28;20193;-84
2022/07/13 01:27:05;;;;;;;3.22;1.50;;;;;;;20.19;56.72;96356.78;5073073;28;20615;-83
2022/07/13 01:29:32;;;;;;;1.70;1.58;;;;;;;20.17;56.40;96343.13;5073526;28;20254;-84
2022/07/13 01:32:00;;;;;;;1.60;1.40;;;;;;;20.09;57.13;96351.25;5072026;28;20225;-84
2022/07/13 01:34:26;;;;;;;1.63;1.30;;;;;;;20.13;56.55;96352.44;5072663;28;20266;-84
2022/07/13 01:36:53;;;;;;;1.75;1.23;;;;;;;20.15;56.58;96342.56;5072701;28;20201;-82
2022/07/13 01:39:20;;;;;;;1.73;1.25;;;;;;;20.18;56.08;96358.63;5072898;28;20200;-83
2022/07/13 01:41:48;;;;;;;1.33;1.23;;;;;;;20.14;56.59;96352.22;5071357;28;20228;-84
2022/07/13 01:44:15;;;;;;;1.40;1.30;;;;;;;20.07;57.07;96356.69;5072234;28;20228;-84
2022/07/13 01:46:41;;;;;;;1.42;1.33;;;;;;;19.99;57.33;96355.19;5073039;28;20193;-83
2022/07/13 01:49:07;;;;;;;2.03;1.50;;;;;;;19.89;57.84;96354.88;5072180;28;20189;-82
2022/07/13 01:51:34;;;;;;;1.50;1.40;;;;;;;19.92;57.46;96356.25;5071738;28;20274;-83
2022/07/13 01:54:00;;;;;;;1.95;1.45;;;;;;;19.96;57.63;96354.81;5071359;28;20832;-85
2022/07/13 01:56:27;;;;;;;1.98;1.25;;;;;;;19.96;57.63;96354.81;5072203;28;20197;-83
2022/07/13 01:58:55;;;;;;;1.40;1.30;;;;;;;19.96;57.83;96353.00;5072772;28;20213;-84
2022/07/13 02:01:21;;;;;;;3.13;1.20;;;;;;;19.96;58.04;96350.38;5071488;28;20285;-83
2022/07/13 02:03:48;;;;;;;1.20;1.20;;;;;;;20.01;57.77;96354.97;5071529;28;20229;-82
2022/07/13 02:06:14;;;;;;;1.30;1.20;;;;;;;19.97;57.80;96357.22;5072318;28;20243;-83
2022/07/13 02:08:41;;;;;;;2.28;1.30;;;;;;;19.96;58.24;96355.63;5072108;28;20207;-85
2022/07/13 02:11:07;;;;;;;2.65;1.40;;;;;;;19.96;57.74;96347.78;5071570;28;20228;-83
2022/07/13 02:13:34;;;;;;;1.38;1.27;;;;;;;19.97;58.25;96345.97;5071628;28;20239;-84
2022/07/13 02:16:01;;;;;;;3.20;1.50;;;;;;;19.91;58.71;96338.97;5071509;28;20204;-84
2022/07/13 02:18:28;;;;;;;1.50;1.40;;;;;;;19.83;59.05;96347.88;5072051;28;20201;-82
2022/07/13 02:20:54;;;;;;;1.30;1.20;;;;;;;19.84;58.90;96356.50;5070737;28;20213;-83
2022/07/13 02:23:21;;;;;;;2.15;1.38;;;;;;;19.89;58.54;96360.09;5071327;28;20294;-84
2022/07/13 02:25:47;;;;;;;2.35;1.30;;;;;;;19.90;58.87;96353.84;5071426;28;20225;-82
2022/07/13 02:28:14;;;;;;;1.55;1.45;;;;;;;19.87;59.09;96353.47;5052245;28;20202;-84
2022/07/13 02:30:40;;;;;;;1.45;1.35;;;;;;;19.84;59.29;96351.28;5066326;28;20259;-85
2022/07/13 02:33:08;;;;;;;1.30;1.20;;;;;;;19.75;59.36;96349.97;5071469;28;20660;-83
2022/07/13 02:35:34;;;;;;;1.30;1.20;;;;;;;19.79;59.24;96351.16;5071728;28;20203;-85
2022/07/13 02:38:01;;;;;;;1.67;1.25;;;;;;;19.80;59.10;96345.72;5071536;28;20962;-84
2022/07/13 02:40:27;;;;;;;1.40;1.30;;;;;;;19.80;59.18;96350.16;5071160;28;20227;-83
2022/07/13 02:42:54;;;;;;;1.65;1.20;;;;;;;19.82;58.69;96350.72;5071834;28;20224;-84
2022/07/13 02:45:20;;;;;;;2.00;1.30;;;;;;;19.82;58.90;96350.72;5072801;28;20610;-83
2022/07/13 02:47:46;;;;;;;2.47;1.30;;;;;;;19.82;58.91;96356.72;5072167;28;20250;-85
2022/07/13 02:50:14;;;;;;;3.38;1.40;;;;;;;19.79;58.95;96351.16;5071855;28;20201;-85
2022/07/13 02:52:41;;;;;;;1.77;1.20;;;;;;;19.68;59.46;96339.56;5071687;28;20236;-85
2022/07/13 02:55:08;;;;;;;3.28;1.70;;;;;;;19.70;59.57;96347.22;5072322;28;20193;-84
2022/07/13 02:57:35;;;;;;;2.97;1.42;;;;;;;19.64;59.88;96339.19;5072524;28;20197;-83
2022/07/13 03:00:01;;;;;;;1.48;1.20;;;;;;;19.69;59.30;96345.59;5073057;28;20200;-85
2022/07/13 03:02:28;;;;;;;1.60;1.50;;;;;;;19.58;60.35;96344.50;5071601;28;20224;-83
2022/07/13 03:04:54;;;;;;;1.50;1.40;;;;;;;19.67;59.58;96344.00;5072005;28;20197;-84
2022/07/13 03:07:22;;;;;;;1.42;1.33;;;;;;;19.68;59.70;96336.97;5071978;28;20197;-85
2022/07/13 03:09:48;;;;;;;1.40;1.27;;;;;;;19.69;59.62;96330.72;5072072;28;20208;-83
2022/07/13 03:12:17;;;;;;;1.80;1.30;;;;;;;19.67;59.88;96332.75;5070416;28;20225;-85
2022/07/13 03:14:44;;;;;;;2.88;1.30;;;;;;;19.63;59.86;96335.00;5072260;28;20695;-85
2022/07/13 03:17:10;;;;;;;1.58;1.30;;;;;;;19.67;60.05;96337.97;5071555;28;20260;-83
2022/07/13 03:19:37;;;;;;;1.70;1.38;;;;;;;19.66;59.57;96333.75;5072286;28;20632;-85
2022/07/13 03:22:04;;;;;;;1.45;1.35;;;;;;;19.67;59.85;96348.44;5071544;28;20224;-85
2022/07/13 03:24:32;;;;;;;3.20;1.30;;;;;;;19.68;59.46;96347.41;5071543;28;20251;-83
2022/07/13 03:26:59;;;;;;;1.63;1.40;;;;;;;19.67;59.86;96344.00;5071229;28;20236;-82
2022/07/13 03:29:25;;;;;;;2.97;1.30;;;;;;;19.67;59.40;96341.41;5072276;28;20254;-84
2022/07/13 03:31:52;;;;;;;1.52;1.42;;;;;;;19.68;59.50;96344.81;5070882;28;20219;-84
2022/07/13 03:34:19;;;;;;;1.83;1.40;;;;;;;19.69;59.60;96349.03;5071698;28;20248;-85
2022/07/13 03:36:45;;;;;;;2.45;1.42;;;;;;;19.64;59.68;96347.03;5071432;28;20216;-83
2022/07/13 03:39:12;;;;;;;1.50;1.40;;;;;;;19.69;59.43;96349.03;5082616;28;20204;-85
2022/07/13 03:41:40;;;;;;;2.30;1.30;;;;;;;19.71;59.25;96354.03;5090874;28;20228;-85
2022/07/13 03:44:06;;;;;;;1.90;1.33;;;;;;;19.72;59.03;96347.78;5091822;28;20231;-85
2022/07/13 03:46:33;;;;;;;2.78;1.30;;;;;;;19.75;58.94;96350.78;5079590;28;20225;-84
2022/07/13 03:48:59;;;;;;;1.67;1.30;;;;;;;19.63;59.25;96349.88;5071466;28;20193;-85
2022/07/13 03:51:25;;;;;;;2.47;1.30;;;;;;;19.60;59.46;96345.91;5071070;28;20331;-84
2022/07/13 03:53:52;;;;;;;1.85;1.40;;;;;;;19.58;59.43;96350.53;5070727;28;20240;-83
2022/07/13 03:56:18;;;;;;;1.50;1.40;;;;;;;19.58;59.48;96350.53;5071575;28;20274;-83
2022/07/13 03:58:46;;;;;;;1.58;1.45;;;;;;;19.60;59.69;96356.34;5071472;28;20579;-83
2022/07/13 04:01:13;;;;;;;2.03;1.60;;;;;;;19.63;59.24;96349.88;5070146;28;20213;-83
2022/07/13 04:03:39;;;;;;;3.05;1.45;;;;;;;19.59;59.71;96351.34;5071183;28;20229;-83
2022/07/13 04:06:06;;;;;;;2.60;1.50;;;;;;;19.62;59.60;96346.47;5070975;28;21775;-84
2022/07/13 04:08:32;;;;;;;1.50;1.40;;;;;;;19.64;59.54;96347.03;5071514;28;20203;-82
2022/07/13 04:10:58;;;;;;;3.03;1.30;;;;;;;19.66;59.29;96345.00;5070889;28;20223;-84
2022/07/13 04:13:25;;;;;;;2.05;1.40;;;;;;;19.69;59.05;96338.56;5070727;28;20229;-83
2022/07/13 04:15:53;;;;;;;2.85;1.45;;;;;;;19.72;58.94;96343.38;5069709;28;20230;-84
2022/07/13 04:18:19;;;;;;;1.48;1.30;;;;;;;19.74;58.95;96340.53;5071260;28;20208;-83
2022/07/13 04:20:46;;;;;;;1.88;1.30;;;;;;;19.70;59.02;96337.56;5072289;28;20246;-84
2022/07/13 04:23:12;;;;;;;3.70;1.50;;;;;;;19.75;59.84;96335.09;5073993;28;20229;-83
2022/07/13 04:25:39;;;;;;;2.22;2.03;;;;;;;19.95;60.82;96333.09;5074994;28;20227;-82
2022/07/13 04:28:05;;;;;;;4.40;1.40;;;;;;;20.12;60.22;96330.72;5075738;28;20669;-81
2022/07/13 04:30:32;;;;;;;2.72;1.40;;;;;;;20.27;59.13;96323.28;5074713;28;20612;-81
2022/07/13 04:33:00;;;;;;;1.90;1.30;;;;;;;20.34;58.45;96328.44;5074242;28;20229;-80
2022/07/13 04:35:27;;;;;;;3.97;1.90;;;;;;;20.50;58.35;96311.38;5074761;28;20205;-79
2022/07/13 04:37:53;;;;;;;2.40;1.48;;;;;;;20.50;57.57;96314.00;5073372;28;20201;-81
2022/07/13 04:40:20;;;;;;;1.60;1.50;;;;;;;20.62;57.31;96312.22;5073909;28;20387;-83
2022/07/13 04:42:46;;;;;;;1.73;1.30;;;;;;;20.74;56.92;96315.69;5072110;28;20224;-80
2022/07/13 04:45:13;;;;;;;1.48;1.30;;;;;;;20.90;56.59;96309.03;5068749;28;20204;-81
2022/07/13 04:47:40;;;;;;;1.48;1.30;;;;;;;20.99;55.98;96305.84;5068826;28;20203;-80
2022/07/13 04:50:08;;;;;;;1.40;1.10;;;;;;;21.04;55.62;96319.09;5071125;28;20204;-82
2022/07/13 04:52:35;;;;;;;4.97;1.38;;;;;;;20.98;55.27;96314.72;5068382;28;20232;-81
2022/07/13 04:55:03;;;;;;;1.42;1.33;;;;;;;20.92;55.38;96312.22;5068331;28;20209;-82
2022/07/13 04:57:29;;;;;;;1.35;1.25;;;;;;;20.88;55.26;96318.94;5072145;28;20197;-80
2022/07/13 04:59:56;;;;;;;4.68;1.45;;;;;;;20.83;55.76;96314.34;5069572;28;20200;-81
2022/07/13 05:02:22;;;;;;;3.30;1.50;;;;;;;20.72;55.80;96302.03;5065161;28;20232;-80
2022/07/13 05:04:49;;;;;;;2.17;1.70;;;;;;;20.82;55.79;96302.28;5069126;28;20209;-80
2022/07/13 05:07:16;;;;;;;3.95;1.50;;;;;;;20.86;55.76;96300.81;5072871;28;20844;-81
2022/07/13 05:09:45;;;;;;;1.30;1.20;;;;;;;20.91;55.59;96300.16;5073345;28;20243;-81
2022/07/13 05:12:11;;;;;;;4.55;1.42;;;;;;;20.95;55.45;96309.16;5071380;28;20304;-82
2022/07/13 05:14:38;;;;;;;3.05;1.60;;;;;;;20.95;55.26;96306.56;5072255;28;20220;-80
2022/07/13 05:17:04;;;;;;;2.20;1.50;;;;;;;20.90;55.35;96301.19;5069898;28;20217;-80
2022/07/13 05:19:31;;;;;;;1.88;1.50;;;;;;;20.99;55.44;96298.00;5071342;28;20630;-81
2022/07/13 05:21:57;;;;;;;4.32;1.50;;;;;;;21.09;55.21;96304.53;5071231;28;20262;-80
2022/07/13 05:24:25;;;;;;;5.78;1.50;;;;;;;21.12;54.82;96302.25;5070545;28;20231;-82
2022/07/13 05:26:51;;;;;;;6.72;3.05;;;;;;;21.18;54.79;96300.53;5072362;28;20200;-80
2022/07/13 05:29:18;;;;;;;3.38;2.00;;;;;;;21.26;54.55;96308.13;5067207;28;20197;-82
2022/07/13 05:31:44;;;;;;;3.10;1.52;;;;;;;21.23;54.13;96308.56;5070598;28;20236;-83
2022/07/13 05:34:11;;;;;;;3.67;2.60;;;;;;;21.41;55.41;96312.91;5068501;28;20227;-84
2022/07/13 05:36:49;;;;;;;4.10;2.30;;;;;;;21.65;55.87;96310.09;5072643;28;20200;-86
2022/07/13 05:39:16;;;;;;;2.92;2.55;;;;;;;21.75;53.97;96308.69;5069580;28;20829;-84
2022/07/13 05:41:47;;;;;;;4.70;2.00;;;;;;;21.75;53.00;96309.50;5072300;28;20311;-83
2022/07/13 05:44:14;;;;;;;3.45;1.75;;;;;;;21.79;53.31;96305.41;5073011;28;20674;-84
2022/07/13 05:46:41;;;;;;;7.60;2.00;;;;;;;21.82;53.27;96312.81;5074058;28;20201;-86
2022/07/13 05:49:07;;;;;;;2.25;1.45;;;;;;;21.85;52.91;96304.50;5074200;28;20291;-84
2022/07/13 05:51:34;;;;;;;3.33;1.50;;;;;;;21.87;52.77;96299.03;5074160;28;20221;-84
2022/07/13 05:54:00;;;;;;;4.28;1.50;;;;;;;21.92;52.69;96299.94;5073986;28;20232;-83
2022/07/13 05:56:27;;;;;;;4.78;1.75;;;;;;;21.98;52.45;96295.56;5074762;28;20197;-83
2022/07/13 05:59:02;;;;;;;3.33;1.52;;;;;;;22.04;52.66;96302.56;5074134;28;20204;-85
2022/07/13 06:01:29;;;;;;;2.60;1.35;;;;;;;22.10;52.44;96299.03;5073605;28;20209;-84
2022/07/13 06:03:55;;;;;;;4.30;3.90;;;;;;;22.12;51.79;96291.72;5073244;28;20228;-84
2022/07/13 06:06:22;;;;;;;2.80;2.00;;;;;;;22.14;51.57;96292.28;5073882;28;20911;-86
2022/07/13 06:08:51;;;;;;;2.83;1.23;;;;;;;22.15;51.33;96279.94;5074391;28;20243;-83
2022/07/13 06:11:17;;;;;;;6.60;3.92;;;;;;;22.22;51.36;96285.88;5073210;28;20262;-84
2022/07/13 06:13:44;;;;;;;3.28;1.30;;;;;;;22.25;51.22;96278.34;5073131;27;20236;-85
2022/07/13 06:16:12;;;;;;;1.55;1.38;;;;;;;22.29;50.74;96266.34;5073133;28;20258;-83
2022/07/13 06:18:47;;;;;;;1.85;1.30;;;;;;;22.39;51.04;96268.38;5071272;28;20671;-85
2022/07/13 06:21:13;;;;;;;1.63;1.40;;;;;;;22.55;51.25;96277.31;5071652;28;20222;-86
2022/07/13 06:23:40;;;;;;;2.33;1.10;;;;;;;22.60;51.15;96274.78;5071267;28;20230;-84
2022/07/13 06:26:06;;;;;;;1.58;1.35;;;;;;;22.62;50.54;96278.78;5072744;28;20193;-83
2022/07/13 06:28:36;;;;;;;1.48;1.23;;;;;;;22.67;50.05;96280.72;5073885;28;20246;-82
2022/07/13 06:31:03;;;;;;;2.13;1.50;;;;;;;22.69;49.96;96276.81;5092738;28;20219;-84
2022/07/13 06:33:30;;;;;;;2.20;1.20;;;;;;;22.78;50.33;96273.81;5083960;28;20248;-84
2022/07/13 06:35:57;;;;;;;2.22;1.20;;;;;;;22.86;49.84;96276.06;5074047;28;20200;-82
2022/07/13 06:38:23;;;;;;;3.25;1.20;;;;;;;22.88;49.51;96274.81;5073679;28;20749;-84
2022/07/13 06:40:54;;;;;;;1.52;1.10;;;;;;;22.90;49.36;96275.34;5072499;28;20228;-84
2022/07/13 06:43:21;;;;;;;4.13;1.20;;;;;;;22.91;48.96;96273.50;5070427;28;20251;-83
2022/07/13 06:45:47;;;;;;;3.95;1.23;;;;;;;23.00;49.07;96274.72;5072942;28;20208;-85
2022/07/13 06:48:14;;;;;;;2.28;1.48;;;;;;;23.04;49.05;96273.22;5074766;28;20210;-85
2022/07/13 06:50:42;;;;;;;1.20;1.10;;;;;;;23.07;49.03;96268.31;5074099;28;20223;-85
2022/07/13 06:53:11;;;;;;;1.55;1.00;;;;;;;23.08;48.59;96266.47;5079885;28;20218;-84
2022/07/13 06:55:45;;;;;;;1.60;1.23;;;;;;;23.07;48.51;96257.78;5089801;28;20283;-82
2022/07/13 06:58:19;;;;;;;2.05;1.20;;;;;;;23.08;48.42;96262.00;5075010;28;20224;-82
2022/07/13 07:00:45;;;;;;;1.33;1.20;;;;;;;23.11;47.85;96258.09;5073081;28;20232;-83
2022/07/13 07:03:14;;;;;;;2.88;1.30;;;;;;;23.09;47.72;96258.31;5068977;28;20235;-83
2022/07/13 07:05:42;;;;;;;1.80;1.30;;;;;;;23.22;48.23;96259.84;5071847;28;20226;-84
2022/07/13 07:08:08;;;;;;;2.33;1.10;;;;;;;23.34;47.89;96259.75;5070231;28;20205;-84
2022/07/13 07:10:36;;;;;;;1.45;1.10;;;;;;;23.43;47.32;96264.38;5068702;28;20692;-86
2022/07/13 07:13:02;;;;;;;5.30;1.20;;;;;;;23.50;47.34;96268.66;5070836;28;20220;-87
2022/07/13 07:15:29;;;;;;;1.92;1.08;;;;;;;23.63;47.62;96274.44;5070684;28;20209;-87
2022/07/13 07:18:06;;;;;;;1.00;1.00;;;;;;;23.67;47.33;96272.09;5070312;28;20197;-83
2022/07/13 07:20:33;;;;;;;7.50;5.45;;;;;;;23.77;47.35;96267.78;5069476;28;20277;-85
2022/07/13 07:23:01;;;;;;;2.88;2.10;;;;;;;23.79;47.25;96264.13;5069169;28;20850;-85
2022/07/13 07:25:27;;;;;;;3.00;1.35;;;;;;;23.84;46.82;96267.63;5070333;28;20575;-84
2022/07/13 07:27:54;;;;;;;1.58;1.13;;;;;;;23.86;45.67;96272.63;5068865;28;20193;-85
2022/07/13 07:30:21;;;;;;;1.20;1.10;;;;;;;23.93;45.53;96274.03;5068938;28;20857;-84
2022/07/13 07:32:49;;;;;;;2.30;1.13;;;;;;;23.99;44.95;96277.53;5069577;28;20233;-82
2022/07/13 07:35:16;;;;;;;1.42;1.20;;;;;;;24.07;44.40;96269.19;5069682;28;20270;-83
2022/07/13 07:37:43;;;;;;;1.20;1.10;;;;;;;24.13;43.21;96270.06;5070936;28;20201;-84
2022/07/13 07:40:11;;;;;;;1.05;0.93;;;;;;;24.18;43.23;96276.19;5071530;28;20208;-82
2022/07/13 07:42:38;;;;;;;1.65;1.00;;;;;;;24.21;42.06;96262.56;5090808;28;20227;-83
2022/07/13 07:45:06;;;;;;;1.10;1.10;;;;;;;24.26;43.32;96262.63;5080091;28;20579;-83
2022/07/13 07:47:33;;;;;;;1.08;1.08;;;;;;;24.44;43.75;96261.50;5068290;28;20204;-84
2022/07/13 07:49:59;;;;;;;3.83;3.20;;;;;;;24.64;43.60;96264.34;5082002;28;20253;-83
2022/07/13 07:52:25;;;;;;;1.83;1.73;;;;;;;24.79;41.55;96264.50;5079649;28;20243;-83
2022/07/13 07:54:52;;;;;;;1.90;1.70;;;;;;;24.93;42.47;96266.72;5077214;28;20228;-84
2022/07/13 07:57:20;;;;;;;1.40;1.30;;;;;;;25.02;42.36;96252.06;5073886;28;20228;-83
2022/07/13 07:59:49;;;;;;;1.10;1.10;;;;;;;25.17;41.52;96257.50;5073398;28;20201;-83
2022/07/13 08:02:16;;;;;;;1.20;1.08;;;;;;;25.33;41.53;96253.13;5073196;28;20220;-84
2022/07/13 08:04:42;;;;;;;1.88;1.10;;;;;;;25.32;40.01;96246.25;5074873;28;20189;-83
2022/07/13 08:07:09;;;;;;;1.25;1.00;;;;;;;25.37;39.42;96241.81;5074574;28;20200;-83
2022/07/13 08:09:38;;;;;;;5.55;1.10;;;;;;;25.43;40.87;96246.06;5074335;28;20197;-84
2022/07/13 08:12:05;;;;;;;1.55;1.30;;;;;;;25.47;40.25;96241.06;5073885;28;20301;-84
2022/07/13 08:14:37;;;;;;;2.80;1.10;;;;;;;25.52;39.95;96254.28;5073969;28;20622;-83
2022/07/13 08:17:10;;;;;;;0.88;0.88;;;;;;;25.61;36.73;96259.88;5074748;28;20235;-84
2022/07/13 08:19:44;;;;;;;1.17;1.08;;;;;;;25.63;36.50;96257.81;5073323;28;20227;-85
2022/07/13 08:24:50;;;;;;;2.50;0.95;;;;;;;25.84;37.12;96259.50;5073360;28;20211;-83
2022/07/13 08:27:17;;;;;;;1.25;1.15;;;;;;;25.90;37.96;96255.88;5073945;28;20203;-84
2022/07/13 08:29:46;;;;;;;1.20;1.10;;;;;;;25.83;37.22;96252.66;5073344;28;20683;-84
2022/07/13 08:32:12;;;;;;;1.30;1.20;;;;;;;25.91;38.20;96260.09;5072449;28;20213;-84
2022/07/13 08:40:08;;;;;;;1.10;1.00;;;;;;;26.27;35.75;96250.47;5071452;28;20309;-84
2022/07/13 08:42:35;;;;;;;2.70;1.23;;;;;;;26.20;35.58;96247.25;5072013;28;20240;-83
2022/07/13 08:45:03;;;;;;;1.48;1.02;;;;;;;26.17;35.51;96253.84;5072324;28;20879;-84
2022/07/13 08:47:30;;;;;;;3.00;1.13;;;;;;;26.17;36.14;96250.41;5073435;28;20193;-83
2022/07/13 08:49:58;;;;;;;1.15;1.05;;;;;;;26.27;36.28;96247.81;5072274;28;20580;-83
2022/07/13 08:52:26;;;;;;;1.30;1.20;;;;;;;26.68;36.43;96247.97;5066358;28;20220;-84
2022/07/13 08:54:53;;;;;;;1.23;1.13;;;;;;;26.74;35.16;96239.78;5070794;28;21007;-83
2022/07/13 08:57:20;;;;;;;1.20;1.10;;;;;;;26.64;34.82;96241.59;5068064;28;20201;-84
2022/07/13 08:59:46;;;;;;;4.53;1.20;;;;;;;26.64;35.20;96244.25;5072125;28;20209;-83
2022/07/13 09:02:14;;;;;;;1.02;0.93;;;;;;;26.59;34.46;96242.38;5070899;28;20208;-83
2022/07/13 09:04:41;;;;;;;3.42;1.15;;;;;;;26.64;35.56;96246.88;5073389;28;20193;-83
2022/07/13 09:07:11;;;;;;;1.23;1.10;;;;;;;26.60;34.53;96249.25;5072388;28;20687;-85
2022/07/13 09:09:38;;;;;;;1.60;1.10;;;;;;;26.71;35.00;96244.78;5072620;28;20230;-85
2022/07/13 09:12:18;;;;;;;2.05;1.20;;;;;;;26.71;34.38;96239.50;5071707;28;20256;-84
2022/07/13 09:14:58;;;;;;;2.72;1.15;;;;;;;26.77;34.74;96247.16;5070815;28;20270;-87
2022/07/13 09:17:35;;;;;;;1.48;1.10;;;;;;;26.81;34.51;96247.44;5072639;28;20184;-84
2022/07/13 09:20:15;;;;;;;1.40;1.20;;;;;;;27.02;34.31;96245.63;5065964;28;20192;-83
2022/07/13 09:22:47;;;;;;;4.20;1.40;;;;;;;27.46;34.11;96254.59;5072912;28;20232;-85
2022/07/13 09:25:25;;;;;;;1.90;1.10;;;;;;;27.46;32.64;96243.22;5062292;28;20216;-85
2022/07/13 09:27:52;;;;;;;3.50;1.40;;;;;;;27.40;33.29;96244.28;5072241;28;20201;-85
2022/07/13 09:30:24;;;;;;;1.38;1.20;;;;;;;27.54;33.92;96253.25;5071726;28;20193;-84
2022/07/13 09:32:54;;;;;;;2.85;1.38;;;;;;;27.65;34.07;96244.28;5071391;28;20657;-84
2022/07/13 09:35:23;;;;;;;2.25;1.38;;;;;;;27.49;32.73;96248.78;5072697;28;20248;-85
2022/07/13 09:37:49;;;;;;;4.38;1.15;;;;;;;27.55;32.21;96249.56;5072397;28;20205;-83
2022/07/13 09:40:18;;;;;;;4.18;1.20;;;;;;;27.51;32.44;96249.31;5070689;28;20212;-85
2022/07/13 09:46:08;;;;;;;1.02;0.95;;;;;;;27.45;32.48;96245.09;5070503;28;20729;-84
2022/07/13 09:48:25;;;;;;;2.25;1.30;;;;;;;27.90;33.00;96248.72;5073017;28;20699;-84
2022/07/13 09:50:56;;;;;;;1.50;1.38;;;;;;;27.86;30.88;96234.44;5070658;28;20330;-84
2022/07/13 09:53:28;;;;;;;1.20;1.10;;;;;;;27.83;30.45;96242.91;5071633;28;20228;-83
2022/07/13 09:55:57;;;;;;;4.53;1.30;;;;;;;27.84;32.08;96245.28;5073788;28;20266;-85
2022/07/13 09:58:28;;;;;;;2.78;2.58;;;;;;;27.87;32.21;96243.16;5072165;28;20193;-84
2022/07/13 10:00:55;;;;;;;2.15;1.30;;;;;;;27.73;31.67;96242.94;5071852;28;20216;-84
2022/07/13 10:03:22;;;;;;;1.40;1.30;;;;;;;27.64;31.39;96244.56;5071579;28;20232;-85
2022/07/13 10:05:50;;;;;;;5.25;1.40;;;;;;;27.60;32.07;96243.50;5072472;28;20201;-84
2022/07/13 10:08:18;;;;;;;2.45;1.20;;;;;;;27.77;32.86;96247.41;5073030;28;20230;-84
2022/07/13 10:10:45;;;;;;;3.42;3.13;;;;;;;28.02;31.91;96241.25;5071637;28;20213;-84
2022/07/13 10:13:13;;;;;;;7.20;3.45;;;;;;;28.23;32.07;96243.84;5071865;28;20228;-84
2022/07/13 10:15:43;;;;;;;2.17;1.30;;;;;;;28.16;30.55;96244.91;5072330;28;20222;-84
2022/07/13 10:18:14;;;;;;;4.32;1.40;;;;;;;28.23;30.10;96235.91;5072547;28;20204;-84
2022/07/13 10:20:43;;;;;;;3.58;1.20;;;;;;;28.27;31.20;96237.75;5071575;28;20224;-84
2022/07/13 10:23:11;;;;;;;2.70;1.02;;;;;;;28.27;29.89;96235.09;5064110;28;20232;-84
2022/07/13 10:25:45;;;;;;;1.20;1.10;;;;;;;28.10;29.55;96231.94;5061442;28;20224;-85
2022/07/13 10:28:19;;;;;;;4.93;1.23;;;;;;;28.26;28.79;96227.41;5073043;28;20239;-83
2022/07/13 10:30:45;;;;;;;1.70;1.20;;;;;;;28.41;28.90;96233.41;5072287;28;20228;-84
2022/07/13 10:33:19;;;;;;;2.13;1.20;;;;;;;28.69;27.69;96233.78;5071909;28;20312;-86
2022/07/13 10:35:50;;;;;;;1.70;1.20;;;;;;;28.81;27.77;96228.97;5072175;28;20315;-83
2022/07/13 10:38:20;;;;;;;1.90;1.70;;;;;;;28.65;27.95;96238.84;5073492;28;20189;-84
2022/07/13 10:40:47;;;;;;;2.35;1.73;;;;;;;28.45;27.85;96233.66;5072553;28;20323;-86
2022/07/13 10:43:18;;;;;;;3.50;1.08;;;;;;;28.41;27.80;96233.41;5073907;28;20231;-86
2022/07/13 10:45:52;;;;;;;2.50;1.00;;;;;;;28.28;27.12;96241.19;5073442;28;20196;-86
2022/07/13 10:48:44;;;;;;;3.38;1.30;;;;;;;28.16;27.03;96234.31;5068553;28;20279;-86
2022/07/13 10:51:24;;;;;;;1.70;1.60;;;;;;;28.38;27.95;96236.63;5045718;28;20246;-86
2022/07/13 10:54:09;;;;;;;1.67;1.58;;;;;;;28.57;27.76;96228.03;5053733;28;20239;-85
2022/07/13 10:56:39;;;;;;;1.42;1.33;;;;;;;28.67;27.42;96227.97;5056531;28;20208;-86
2022/07/13 10:59:06;;;;;;;1.88;1.30;;;;;;;28.58;26.80;96225.09;5070951;28;20196;-84
2022/07/13 11:01:40;;;;;;;2.25;1.17;;;;;;;28.51;27.69;96227.25;5070190;28;20228;-85
2022/07/13 11:04:11;;;;;;;1.35;1.20;;;;;;;28.54;27.14;96216.91;5070410;28;20247;-86
2022/07/13 11:06:44;;;;;;;1.70;1.10;;;;;;;28.66;27.11;96213.13;5071813;28;20663;-86
2022/07/13 11:09:18;;;;;;;2.45;1.10;;;;;;;28.77;26.76;96210.13;5071716;28;20247;-85
2022/07/13 11:11:51;;;;;;;1.60;1.10;;;;;;;28.97;26.96;96211.06;5071139;28;20212;-85
2022/07/13 11:14:49;;;;;;;2.17;1.48;;;;;;;29.18;26.03;96202.66;5068453;28;20221;-86
2022/07/13 11:17:17;;;;;;;2.95;2.10;;;;;;;29.46;26.16;96195.78;5071987;28;20208;-85
2022/07/13 11:19:52;;;;;;;1.42;1.20;;;;;;;29.63;25.18;96205.19;5072225;28;20667;-86
2022/07/13 11:22:20;;;;;;;2.88;1.20;;;;;;;29.68;25.73;96192.63;5071458;28;20217;-86
2022/07/13 11:25:14;;;;;;;2.05;1.20;;;;;;;29.55;24.86;96201.28;5071942;28;20200;-85
2022/07/13 11:28:01;;;;;;;2.13;1.10;;;;;;;29.61;25.31;96192.19;5056961;28;20298;-85
2022/07/13 11:30:46;;;;;;;1.95;1.40;;;;;;;29.59;25.95;96191.69;5074099;28;20204;-85
2022/07/13 11:33:12;;;;;;;1.00;1.00;;;;;;;29.71;26.71;96196.59;5076321;28;20232;-86
2022/07/13 11:35:50;;;;;;;2.55;1.15;;;;;;;29.73;27.02;96186.47;5074107;28;20244;-86
2022/07/13 11:38:20;;;;;;;2.90;1.55;;;;;;;29.64;27.22;96188.16;5075798;28;20546;-86
2022/07/13 11:40:48;;;;;;;1.52;1.10;;;;;;;29.62;27.35;96188.47;5073204;28;20278;-86
2022/07/13 11:43:15;;;;;;;5.38;1.10;;;;;;;29.52;26.87;96191.22;5096342;28;20310;-84
2022/07/13 11:45:43;;;;;;;2.75;1.30;;;;;;;29.39;27.17;96192.69;5097371;28;20199;-86
2022/07/13 11:48:13;;;;;;;1.45;1.08;;;;;;;29.41;27.22;96187.09;5077754;28;20552;-86
2022/07/13 11:51:06;;;;;;;3.42;1.20;;;;;;;29.68;26.60;96195.28;5077597;28;20225;-85